Time;durP1;ratioP1;P1;durP2;ratioP2;P2;SDS_P1;SDS_P2;PMS_P1;PMS_P2;Temp;Humidity;BMP_temperature;BMP_pressure;BME280_temperature;BME280_humidity;BME280_pressure;Samples;Min_cycle;Max_cycle;Signal;HPM_P1;HPM_P2
2022/09/07 00:02:13;;;;;;;10.50;9.50;;;19.40;99.90;;;;;;5117533;27;20162;-81
2022/09/07 00:04:39;;;;;;;12.40;9.65;;;19.40;99.90;;;;;;5144564;27;20035;-81
2022/09/07 00:07:04;;;;;;;10.60;9.27;;;19.40;99.90;;;;;;5078099;27;20047;-81
2022/09/07 00:09:30;;;;;;;11.80;9.70;;;19.40;99.90;;;;;;5113645;27;20039;-76
2022/09/07 00:11:56;;;;;;;12.00;9.85;;;19.40;99.90;;;;;;5117299;27;20383;-77
2022/09/07 00:14:22;;;;;;;11.30;10.18;;;19.30;99.90;;;;;;5091658;27;20042;-76
2022/09/07 00:16:48;;;;;;;11.73;10.25;;;19.30;99.90;;;;;;5098304;27;20394;-76
2022/09/07 00:19:13;;;;;;;12.60;9.95;;;19.30;99.90;;;;;;5105625;27;20039;-76
2022/09/07 00:21:39;;;;;;;9.82;8.73;;;19.30;99.90;;;;;;5109767;27;20050;-77
2022/09/07 00:24:07;;;;;;;10.68;9.57;;;19.30;99.90;;;;;;5105105;27;20057;-76
2022/09/07 00:26:33;;;;;;;11.57;9.90;;;19.20;99.90;;;;;;5079690;27;20050;-76
2022/09/07 00:29:06;;;;;;;11.30;10.20;;;19.20;99.90;;;;;;5087013;27;20084;-76
2022/09/07 00:31:32;;;;;;;10.35;9.43;;;19.20;99.90;;;;;;5109190;27;20512;-77
2022/09/07 00:34:01;;;;;;;12.15;10.95;;;19.20;99.90;;;;;;5088704;27;20070;-76
2022/09/07 00:36:30;;;;;;;12.65;10.50;;;19.10;99.90;;;;;;5124629;27;20043;-76
2022/09/07 00:38:57;;;;;;;11.23;10.23;;;19.10;99.90;;;;;;5127793;27;20451;-77
2022/09/07 00:41:23;;;;;;;15.80;10.43;;;19.10;99.90;;;;;;5117610;27;20039;-77
2022/09/07 00:43:54;;;;;;;11.45;10.05;;;19.00;99.90;;;;;;5100472;27;20043;-77
2022/09/07 00:46:30;;;;;;;11.30;10.15;;;19.00;99.90;;;;;;5118078;27;20039;-77
2022/09/07 00:49:18;;;;;;;12.45;10.57;;;18.90;99.90;;;;;;5101017;27;20077;-77
2022/09/07 00:51:51;;;;;;;13.20;11.93;;;18.90;99.90;;;;;;5111825;27;20039;-79
2022/09/07 00:54:25;;;;;;;13.00;11.70;;;18.80;99.90;;;;;;5097582;27;20047;-78
2022/09/07 00:56:52;;;;;;;12.48;11.30;;;18.80;99.90;;;;;;5101961;27;21378;-83
2022/09/07 00:59:24;;;;;;;14.45;12.95;;;18.80;99.90;;;;;;5085656;27;20131;-83
2022/09/07 01:01:50;;;;;;;14.52;13.23;;;18.70;99.90;;;;;;5124316;27;20071;-83
2022/09/07 01:04:16;;;;;;;15.32;14.00;;;18.70;99.90;;;;;;5105237;27;20528;-85
2022/09/07 01:06:43;;;;;;;16.10;14.52;;;18.60;99.90;;;;;;5098776;27;20066;-86
2022/09/07 01:09:21;;;;;;;17.63;15.88;;;18.50;99.90;;;;;;5105085;27;20039;-88
2022/09/07 01:11:49;;;;;;;16.67;15.05;;;18.40;99.90;;;;;;5118026;27;20626;-86
2022/09/07 01:14:21;;;;;;;16.98;15.35;;;18.30;99.90;;;;;;5097132;27;20039;-85
2022/09/07 01:17:25;;;;;;;17.25;15.43;;;18.30;99.90;;;;;;5099810;27;20125;-83
2022/09/07 01:20:20;;;;;;;20.33;18.30;;;18.30;99.90;;;;;;5121826;27;20135;-86
2022/09/07 01:22:52;;;;;;;27.13;24.38;;;18.40;99.90;;;;;;5094056;27;20047;-85
2022/09/07 01:25:44;;;;;;;39.58;31.50;;;18.40;99.90;;;;;;5104959;27;20093;-86
2022/09/07 01:28:21;;;;;;;22.95;20.58;;;18.40;99.90;;;;;;5097720;27;20404;-86
2022/09/07 01:30:54;;;;;;;29.50;26.85;;;18.40;99.90;;;;;;5107012;27;20074;-85
2022/09/07 01:33:45;;;;;;;28.92;26.45;;;18.40;99.90;;;;;;5114351;27;20486;-86
2022/09/07 01:36:39;;;;;;;22.25;20.50;;;18.40;99.90;;;;;;5107136;27;21003;-86
2022/09/07 01:39:07;;;;;;;26.10;23.90;;;18.50;99.90;;;;;;5105377;27;20399;-86
2022/09/07 01:41:50;;;;;;;26.55;24.35;;;18.40;99.90;;;;;;5088537;27;20511;-87
2022/09/07 01:44:36;;;;;;;29.08;26.45;;;18.40;99.90;;;;;;5117017;27;20046;-83
2022/09/07 01:47:24;;;;;;;40.75;36.78;;;18.40;99.90;;;;;;5112623;27;20505;-85
2022/09/07 01:49:53;;;;;;;31.77;28.80;;;18.40;99.90;;;;;;5102768;27;20054;-84
2022/09/07 01:52:41;;;;;;;31.83;29.03;;;18.30;99.90;;;;;;5116844;27;20045;-83
2022/09/07 01:55:12;;;;;;;33.85;30.67;;;18.30;99.90;;;;;;5122232;27;20046;-85
2022/09/07 01:58:26;;;;;;;40.58;36.55;;;18.20;99.90;;;;;;5097287;27;20075;-85
2022/09/07 02:01:00;;;;;;;20.05;18.23;;;18.20;99.90;;;;;;5043744;28;20101;-88
2022/09/07 02:03:48;;;;;;;25.27;22.83;;;18.20;99.90;;;;;;5111608;27;20055;-88
2022/09/07 02:06:28;;;;;;;22.17;20.27;;;18.10;99.90;;;;;;5094359;27;20038;-87
2022/09/07 02:09:06;;;;;;;20.65;18.95;;;18.10;99.90;;;;;;5115018;27;20312;-85
2022/09/07 02:11:45;;;;;;;18.67;17.08;;;18.10;99.90;;;;;;5101690;27;20043;-85
2022/09/07 02:14:14;;;;;;;19.60;17.80;;;18.00;99.90;;;;;;5106181;27;20123;-89
2022/09/07 02:16:52;;;;;;;25.75;23.45;;;18.00;99.90;;;;;;5101440;28;20516;-88
2022/09/07 02:19:20;;;;;;;19.98;18.38;;;18.00;99.90;;;;;;5107902;27;20131;-86
2022/09/07 02:21:52;;;;;;;20.95;19.25;;;17.90;99.90;;;;;;5106645;27;20053;-87
2022/09/07 02:24:34;;;;;;;20.25;18.48;;;17.80;99.90;;;;;;5124950;27;20050;-86
2022/09/07 02:27:21;;;;;;;24.92;22.60;;;17.80;99.90;;;;;;5118984;27;20043;-87
2022/09/07 02:29:47;;;;;;;24.55;22.25;;;17.80;99.90;;;;;;5113246;27;20043;-88
2022/09/07 02:32:16;;;;;;;18.75;17.15;;;17.80;99.90;;;;;;5093530;27;20046;-87
2022/09/07 02:34:42;;;;;;;18.48;16.88;;;17.80;99.90;;;;;;5080018;27;20378;-85
2022/09/07 02:37:09;;;;;;;16.63;15.23;;;17.80;99.90;;;;;;5110252;27;20050;-86
2022/09/07 02:39:38;;;;;;;15.80;14.40;;;17.80;99.90;;;;;;5109396;27;20047;-85
2022/09/07 02:42:23;;;;;;;15.27;13.88;;;17.70;99.90;;;;;;5089834;27;20045;-86
2022/09/07 02:44:49;;;;;;;14.13;12.82;;;17.70;99.90;;;;;;5101741;28;20122;-87
2022/09/07 02:47:52;;;;;;;12.93;11.82;;;17.70;99.90;;;;;;5067351;28;20618;-88
2022/09/07 02:50:39;;;;;;;12.00;10.95;;;17.70;99.90;;;;;;5044559;28;20129;-89
2022/09/07 02:53:27;;;;;;;12.65;11.45;;;17.70;99.90;;;;;;5094527;28;20410;-87
2022/09/07 02:56:24;;;;;;;12.77;11.68;;;17.70;99.90;;;;;;5096626;28;20035;-87
2022/09/07 02:58:53;;;;;;;11.93;10.93;;;17.70;99.90;;;;;;5100908;28;20040;-86
2022/09/07 03:02:00;;;;;;;13.02;11.73;;;17.60;99.90;;;;;;5100311;27;20103;-87
2022/09/07 03:04:46;;;;;;;13.38;12.07;;;17.60;99.90;;;;;;5103300;27;20240;-87
2022/09/07 03:07:32;;;;;;;12.18;11.15;;;17.60;99.90;;;;;;5107674;27;20039;-87
2022/09/07 03:10:01;;;;;;;12.13;11.07;;;17.60;99.90;;;;;;5117837;27;20038;-86
2022/09/07 03:12:47;;;;;;;12.30;11.13;;;17.50;99.90;;;;;;5103380;27;20035;-83
2022/09/07 03:15:25;;;;;;;14.63;13.38;;;17.50;99.90;;;;;;5108049;27;20049;-83
2022/09/07 03:17:51;;;;;;;12.82;11.73;;;17.50;99.90;;;;;;5117397;27;20089;-83
2022/09/07 03:20:19;;;;;;;12.32;11.32;;;17.50;99.90;;;;;;5090347;28;20047;-83
2022/09/07 03:22:46;;;;;;;13.23;12.13;;;17.50;99.90;;;;;;5085193;28;20046;-82
2022/09/07 03:25:13;;;;;;;12.90;11.73;;;17.50;99.90;;;;;;5098097;27;20047;-83
2022/09/07 03:27:39;;;;;;;11.73;10.70;;;17.50;99.90;;;;;;5100313;27;20476;-83
2022/09/07 03:30:09;;;;;;;12.95;11.77;;;17.50;99.90;;;;;;5076836;28;20032;-83
2022/09/07 03:32:38;;;;;;;;;;;17.40;99.90;;;;;;5106408;27;20082;-83
2022/09/07 03:35:08;;;;;;;12.23;11.13;;;17.40;99.90;;;;;;5122812;27;19962;-83
2022/09/07 03:37:38;;;;;;;14.68;13.57;;;17.30;99.90;;;;;;5111494;27;20050;-83
2022/09/07 03:40:08;;;;;;;14.88;13.68;;;17.30;99.90;;;;;;5082722;28;20063;-84
2022/09/07 03:42:34;;;;;;;16.10;14.65;;;17.30;99.90;;;;;;5100951;27;20088;-84
2022/09/07 03:45:00;;;;;;;15.63;14.23;;;17.30;99.90;;;;;;5093976;27;20071;-82
2022/09/07 03:47:26;;;;;;;15.85;14.35;;;17.30;99.90;;;;;;5078418;28;20365;-83
2022/09/07 03:49:51;;;;;;;16.10;14.60;;;17.20;99.90;;;;;;5078697;28;20046;-82
2022/09/07 03:52:17;;;;;;;15.93;14.38;;;17.20;99.90;;;;;;5044113;28;20379;-83
2022/09/07 03:54:43;;;;;;;19.20;17.52;;;17.30;99.90;;;;;;5071708;28;20445;-83
2022/09/07 03:57:09;;;;;;;20.60;15.88;;;17.20;99.90;;;;;;5070775;28;20113;-83
2022/09/07 03:59:35;;;;;;;16.58;14.98;;;17.20;99.90;;;;;;5070410;28;20489;-83
2022/09/07 04:02:10;;;;;;;19.65;17.95;;;17.30;99.90;;;;;;5098123;28;20048;-84
2022/09/07 04:04:36;;;;;;;16.90;15.43;;;17.20;99.90;;;;;;5085398;28;20036;-84
2022/09/07 04:07:02;;;;;;;16.08;14.50;;;17.30;99.90;;;;;;5041985;28;20732;-82
2022/09/07 04:09:29;;;;;;;15.38;13.95;;;17.30;99.90;;;;;;5051859;28;20047;-83
2022/09/07 04:11:55;;;;;;;15.63;14.32;;;17.30;99.90;;;;;;5082413;28;20578;-85
2022/09/07 04:14:20;;;;;;;17.17;15.52;;;17.30;99.90;;;;;;5045379;28;20147;-85
2022/09/07 04:16:47;;;;;;;19.45;17.75;;;17.30;99.90;;;;;;5065225;28;20047;-84
2022/09/07 04:19:16;;;;;;;18.80;17.17;;;17.30;99.90;;;;;;5071948;28;20055;-86
2022/09/07 04:21:46;;;;;;;28.70;26.13;;;17.30;99.90;;;;;;5085941;28;20040;-84
2022/09/07 04:24:13;;;;;;;18.80;17.27;;;17.20;99.90;;;;;;5068280;28;20050;-84
2022/09/07 04:26:42;;;;;;;33.08;29.70;;;17.20;99.90;;;;;;5076688;28;20058;-85
2022/09/07 04:29:08;;;;;;;34.70;29.05;;;17.30;99.90;;;;;;5087540;28;20114;-85
2022/09/07 04:31:34;;;;;;;41.55;33.85;;;17.30;99.90;;;;;;5062044;28;20051;-85
2022/09/07 04:34:01;;;;;;;19.48;17.77;;;17.30;99.90;;;;;;5080074;28;20434;-85
2022/09/07 04:36:28;;;;;;;20.35;18.55;;;17.30;99.90;;;;;;5090067;28;20071;-87
2022/09/07 04:39:03;;;;;;;28.98;26.25;;;17.30;99.90;;;;;;5052801;28;20047;-87
2022/09/07 04:41:33;;;;;;;20.85;19.15;;;17.40;99.90;;;;;;5071576;28;20506;-87
2022/09/07 04:44:18;;;;;;;22.50;20.60;;;17.40;99.90;;;;;;5093696;28;20405;-87
2022/09/07 04:46:43;;;;;;;24.17;21.95;;;17.40;99.90;;;;;;5065789;28;20449;-88
2022/09/07 04:49:10;;;;;;;23.50;21.52;;;17.40;99.90;;;;;;5081744;27;20086;-87
2022/09/07 04:51:41;;;;;;;25.52;23.33;;;17.40;99.90;;;;;;5091418;27;20054;-86
2022/09/07 04:54:26;;;;;;;21.55;19.70;;;17.50;99.90;;;;;;5072672;28;20043;-86
2022/09/07 04:57:11;;;;;;;24.95;22.70;;;17.50;99.90;;;;;;5079054;27;20533;-85
2022/09/07 04:59:37;;;;;;;23.10;21.15;;;17.40;99.90;;;;;;5073132;28;20521;-85
2022/09/07 05:02:09;;;;;;;26.85;24.58;;;17.40;99.90;;;;;;5082775;27;20050;-86
2022/09/07 05:04:36;;;;;;;24.15;22.23;;;17.40;99.90;;;;;;5067127;27;20035;-87
2022/09/07 05:07:01;;;;;;;26.52;24.17;;;17.40;99.90;;;;;;5082831;27;20039;-87
2022/09/07 05:09:27;;;;;;;25.52;23.42;;;17.40;99.90;;;;;;5055005;27;20134;-86
2022/09/07 05:11:56;;;;;;;27.02;24.73;;;17.40;99.90;;;;;;5053728;28;20039;-86
2022/09/07 05:14:22;;;;;;;29.90;27.27;;;17.30;99.90;;;;;;5068864;27;20047;-84
2022/09/07 05:16:48;;;;;;;28.65;26.15;;;17.30;99.90;;;;;;5086956;27;20038;-84
2022/09/07 05:19:14;;;;;;;30.08;27.48;;;17.20;99.90;;;;;;5067283;28;20047;-84
2022/09/07 05:21:40;;;;;;;33.63;30.63;;;17.10;99.90;;;;;;5053788;27;20095;-83
2022/09/07 05:24:08;;;;;;;29.85;27.38;;;17.10;99.90;;;;;;5085617;27;20537;-84
2022/09/07 05:26:41;;;;;;;29.45;27.02;;;17.10;99.90;;;;;;5081907;27;20510;-84
2022/09/07 05:29:09;;;;;;;30.15;27.58;;;17.10;99.90;;;;;;5082008;27;20055;-85
2022/09/07 05:31:39;;;;;;;30.33;27.92;;;17.10;99.90;;;;;;5052816;27;20100;-84
2022/09/07 05:34:04;;;;;;;32.50;29.80;;;17.10;99.90;;;;;;5079008;27;20054;-84
2022/09/07 05:36:34;;;;;;;30.88;28.23;;;17.10;99.90;;;;;;5083221;27;20049;-84
2022/09/07 05:39:00;;;;;;;32.50;29.88;;;17.10;99.90;;;;;;5080674;28;20041;-85
2022/09/07 05:41:26;;;;;;;32.45;29.75;;;17.10;99.90;;;;;;5073797;27;20517;-84
2022/09/07 05:43:53;;;;;;;31.55;28.95;;;17.10;99.90;;;;;;5066219;28;20555;-84
2022/09/07 05:46:19;;;;;;;37.17;33.90;;;17.20;99.90;;;;;;5096091;27;20043;-84
2022/09/07 05:48:45;;;;;;;40.78;37.05;;;17.10;99.90;;;;;;5099076;27;20103;-84
2022/09/07 05:51:12;;;;;;;36.88;33.78;;;17.20;99.90;;;;;;5082989;27;20116;-84
2022/09/07 05:53:41;;;;;;;30.98;28.38;;;17.20;99.90;;;;;;5088978;27;20109;-85
2022/09/07 05:56:08;;;;;;;38.58;35.25;;;17.20;99.90;;;;;;5091119;27;20087;-85
2022/09/07 05:58:36;;;;;;;35.78;32.55;;;17.30;99.90;;;;;;5099704;27;20520;-84
2022/09/07 06:01:12;;;;;;;37.78;34.72;;;17.30;99.90;;;;;;5100215;27;20051;-84
2022/09/07 06:03:39;;;;;;;38.20;35.00;;;17.30;99.90;;;;;;5110225;27;20035;-89
2022/09/07 06:06:11;;;;;;;40.60;37.05;;;17.30;99.90;;;;;;5108940;27;20046;-90
2022/09/07 06:08:45;;;;;;;34.60;31.90;;;17.40;99.90;;;;;;5096416;27;20043;-91
2022/09/07 06:11:14;;;;;;;38.67;35.42;;;17.40;99.90;;;;;;5106617;27;20089;-90
2022/09/07 06:13:41;;;;;;;37.50;34.42;;;17.40;99.90;;;;;;5112282;27;20050;-90
2022/09/07 06:16:09;;;;;;;39.50;36.10;;;17.40;99.90;;;;;;5104863;27;20043;-89
2022/09/07 06:18:41;;;;;;;39.75;36.28;;;17.50;99.90;;;;;;5091470;27;20099;-90
2022/09/07 06:21:11;;;;;;;39.80;36.35;;;17.50;99.90;;;;;;5106922;27;20059;-92
2022/09/07 06:23:39;;;;;;;39.58;36.10;;;17.50;99.90;;;;;;5116062;27;20054;-91
2022/09/07 06:26:06;;;;;;;34.47;31.40;;;17.50;99.90;;;;;;5102637;27;20114;-90
2022/09/07 06:28:38;;;;;;;39.30;35.85;;;17.50;99.90;;;;;;5100926;27;20104;-90
2022/09/07 06:31:09;;;;;;;39.55;36.17;;;17.60;99.90;;;;;;5102491;27;20061;-90
2022/09/07 06:33:39;;;;;;;41.15;37.55;;;17.60;99.90;;;;;;5127095;27;20066;-91
2022/09/07 06:36:13;;;;;;;40.83;37.45;;;17.60;99.90;;;;;;5097316;27;20054;-85
2022/09/07 06:38:39;;;;;;;59.90;53.78;;;17.60;99.90;;;;;;5135205;27;20039;-86
2022/09/07 06:41:20;;;;;;;51.72;46.58;;;17.60;99.90;;;;;;5107364;27;20043;-83
2022/09/07 06:43:46;;;;;;;46.35;42.08;;;17.60;99.90;;;;;;5105125;27;20125;-83
2022/09/07 06:46:13;;;;;;;45.10;41.08;;;17.60;99.90;;;;;;5100438;27;20751;-86
2022/09/07 06:48:39;;;;;;;40.20;36.90;;;17.60;99.90;;;;;;5103557;27;20649;-83
2022/09/07 06:51:25;;;;;;;45.95;41.83;;;17.60;99.90;;;;;;5092590;27;20039;-84
2022/09/07 06:53:55;;;;;;;47.05;42.92;;;17.70;99.90;;;;;;5117832;27;20043;-84
2022/09/07 06:56:21;;;;;;;44.20;40.22;;;17.70;99.90;;;;;;5118208;27;20043;-83
2022/09/07 06:58:54;;;;;;;43.58;39.38;;;17.70;99.90;;;;;;5100297;27;20046;-81
2022/09/07 07:01:21;;;;;;;44.33;40.38;;;17.80;99.90;;;;;;5089649;27;20130;-82
2022/09/07 07:03:52;;;;;;;54.08;48.83;;;17.80;99.90;;;;;;5094847;27;20553;-82
2022/09/07 07:06:18;;;;;;;50.55;46.05;;;17.80;99.90;;;;;;5079556;27;21444;-82
2022/09/07 07:08:44;;;;;;;43.45;39.65;;;17.80;99.90;;;;;;5102685;27;20672;-81
2022/09/07 07:11:11;;;;;;;46.05;41.95;;;17.80;99.90;;;;;;5076283;27;20039;-85
2022/09/07 07:13:39;;;;;;;48.13;43.58;;;17.90;99.90;;;;;;5118114;27;20037;-85
2022/09/07 07:16:11;;;;;;;42.03;38.38;;;17.90;99.90;;;;;;5121497;27;20064;-85
2022/09/07 07:18:37;;;;;;;44.05;40.33;;;18.00;99.90;;;;;;5086441;27;20092;-85
2022/09/07 07:21:08;;;;;;;45.08;40.80;;;18.00;99.90;;;;;;5102766;27;20039;-85
2022/09/07 07:23:37;;;;;;;58.08;52.33;;;18.00;99.90;;;;;;5119158;27;20130;-85
2022/09/07 07:26:10;;;;;;;44.25;40.35;;;18.10;99.90;;;;;;5093782;27;20034;-84
2022/09/07 07:28:36;;;;;;;44.88;41.08;;;18.10;99.90;;;;;;5104223;27;20539;-85
2022/09/07 07:31:04;;;;;;;49.50;45.05;;;18.10;99.90;;;;;;5083167;27;20043;-84
2022/09/07 07:33:52;;;;;;;46.15;41.95;;;18.20;99.90;;;;;;5092352;27;20043;-82
2022/09/07 07:36:24;;;;;;;43.35;39.50;;;18.30;99.90;;;;;;5119909;27;20046;-83
2022/09/07 07:38:52;;;;;;;48.88;44.58;;;18.40;99.90;;;;;;5102878;27;20041;-82
2022/09/07 07:41:20;;;;;;;45.10;41.08;;;18.40;99.90;;;;;;5121646;27;20081;-82
2022/09/07 07:43:47;;;;;;;46.97;42.83;;;18.40;99.90;;;;;;5096926;27;20031;-82
2022/09/07 07:46:16;;;;;;;56.75;51.40;;;18.40;99.90;;;;;;5071453;27;20043;-83
2022/09/07 07:48:46;;;;;;;44.13;40.33;;;18.50;99.90;;;;;;5105414;27;20042;-83
2022/09/07 07:51:30;;;;;;;46.20;42.00;;;18.50;99.90;;;;;;5098432;27;20047;-83
2022/09/07 07:53:58;;;;;;;45.08;40.95;;;18.60;99.90;;;;;;5087548;27;20572;-83
2022/09/07 07:56:24;;;;;;;42.08;38.45;;;18.70;99.90;;;;;;5094600;27;20047;-83
2022/09/07 07:58:51;;;;;;;49.35;44.80;;;18.70;99.90;;;;;;5096075;27;20031;-83
2022/09/07 08:01:17;;;;;;;39.33;36.03;;;18.80;99.90;;;;;;5089479;27;20046;-83
2022/09/07 08:03:46;;;;;;;41.92;38.22;;;18.80;99.90;;;;;;5091872;27;20091;-82
2022/09/07 08:06:17;;;;;;;41.63;37.92;;;18.80;99.90;;;;;;5114034;27;20050;-83
2022/09/07 08:08:44;;;;;;;36.67;33.38;;;18.90;99.90;;;;;;5111881;27;20043;-82
2022/09/07 08:11:18;;;;;;;36.25;33.20;;;18.90;99.90;;;;;;5076344;27;20057;-82
2022/09/07 08:13:46;;;;;;;36.58;33.40;;;18.90;99.90;;;;;;5115399;27;20038;-82
2022/09/07 08:16:12;;;;;;;32.30;29.38;;;18.90;99.90;;;;;;5100714;27;20069;-82
2022/09/07 08:18:39;;;;;;;31.00;28.45;;;19.00;99.90;;;;;;5079685;27;20330;-83
2022/09/07 08:21:15;;;;;;;31.88;29.23;;;19.10;99.90;;;;;;5089592;27;20038;-82
2022/09/07 08:23:42;;;;;;;31.00;28.17;;;19.20;99.90;;;;;;5116907;27;20568;-81
2022/09/07 08:26:08;;;;;;;28.67;26.25;;;19.30;99.90;;;;;;5096125;27;20634;-83
2022/09/07 08:28:37;;;;;;;30.02;27.45;;;19.30;99.90;;;;;;5094068;27;20957;-82
2022/09/07 08:31:11;;;;;;;27.95;25.67;;;19.30;99.90;;;;;;5115037;27;20047;-82
2022/09/07 08:33:38;;;;;;;28.60;25.92;;;19.30;99.90;;;;;;5110393;27;20035;-82
2022/09/07 08:36:07;;;;;;;26.77;24.48;;;19.40;99.90;;;;;;5094430;27;20054;-82
2022/09/07 08:38:34;;;;;;;26.13;23.67;;;19.30;99.90;;;;;;5104721;27;20521;-83
2022/09/07 08:41:44;;;;;;;26.85;24.65;;;19.40;99.90;;;;;;5113838;27;20126;-81
2022/09/07 08:44:39;;;;;;;25.33;22.92;;;19.40;99.90;;;;;;5105598;27;20087;-81
2022/09/07 08:47:36;;;;;;;22.50;20.42;;;19.40;99.90;;;;;;5114721;27;20050;-82
2022/09/07 08:50:18;;;;;;;21.85;20.05;;;19.50;99.90;;;;;;5078496;27;20065;-81
2022/09/07 08:53:05;;;;;;;24.77;22.67;;;19.50;99.90;;;;;;5086165;28;20541;-82
2022/09/07 08:55:37;;;;;;;23.30;21.20;;;19.50;99.90;;;;;;5101703;27;20121;-81
2022/09/07 08:58:17;;;;;;;21.92;20.02;;;19.70;99.90;;;;;;5089719;27;20058;-81
2022/09/07 09:00:43;;;;;;;19.40;17.65;;;19.80;99.90;;;;;;5093146;27;20130;-82
2022/09/07 09:03:26;;;;;;;25.80;23.38;;;19.90;99.90;;;;;;5078434;27;20413;-82
2022/09/07 09:06:04;;;;;;;19.70;17.90;;;20.00;99.90;;;;;;5094424;27;20490;-81
2022/09/07 09:08:45;;;;;;;18.73;17.13;;;20.20;99.90;;;;;;5078536;27;20046;-80
2022/09/07 09:11:23;;;;;;;19.13;17.42;;;20.20;99.90;;;;;;5084867;27;20046;-82
2022/09/07 09:14:07;;;;;;;18.75;17.00;;;20.20;99.90;;;;;;5096763;27;20818;-82
2022/09/07 09:16:46;;;;;;;17.92;16.25;;;20.20;99.90;;;;;;5080378;28;20047;-82
2022/09/07 09:19:44;;;;;;;18.08;16.48;;;20.10;99.90;;;;;;5077256;28;20085;-82
2022/09/07 09:22:13;;;;;;;17.75;16.08;;;20.20;99.90;;;;;;5064314;28;20043;-82
2022/09/07 09:24:46;;;;;;;17.77;16.08;;;20.20;99.90;;;;;;5086884;27;20062;-81
2022/09/07 09:27:12;;;;;;;14.30;13.10;;;20.10;99.90;;;;;;5077645;28;20502;-82
2022/09/07 09:29:38;;;;;;;14.82;13.45;;;20.20;99.90;;;;;;5080233;28;20052;-82
2022/09/07 09:32:31;;;;;;;17.10;15.60;;;20.30;99.90;;;;;;5077540;27;20043;-82
2022/09/07 09:35:11;;;;;;;14.02;12.63;;;20.40;99.90;;;;;;5074404;27;20057;-82
2022/09/07 09:37:39;;;;;;;14.40;12.95;;;20.60;99.90;;;;;;5093346;27;20040;-81
2022/09/07 09:40:17;;;;;;;13.35;12.10;;;20.80;99.90;;;;;;5081318;27;20079;-81
2022/09/07 09:42:43;;;;;;;14.00;12.70;;;20.90;99.90;;;;;;5063393;28;20130;-81
2022/09/07 09:45:20;;;;;;;13.35;12.05;;;21.00;99.90;;;;;;5061247;28;20165;-82
2022/09/07 09:47:51;;;;;;;13.38;12.27;;;20.90;99.90;;;;;;5099544;28;20059;-81
2022/09/07 09:50:32;;;;;;;12.65;11.40;;;21.00;99.90;;;;;;5078409;27;20112;-81
2022/09/07 09:52:59;;;;;;;11.82;10.63;;;21.00;99.90;;;;;;5077473;27;20430;-81
2022/09/07 09:55:31;;;;;;;11.75;10.52;;;21.00;99.90;;;;;;5066063;27;20044;-81
2022/09/07 09:58:00;;;;;;;10.65;9.57;;;21.00;99.90;;;;;;5093487;28;20031;-82
2022/09/07 10:00:31;;;;;;;10.97;9.87;;;21.00;99.90;;;;;;5089925;28;20521;-81
2022/09/07 10:03:08;;;;;;;10.70;9.70;;;21.00;99.90;;;;;;5086549;27;20784;-81
2022/09/07 10:05:37;;;;;;;10.27;9.32;;;21.00;99.90;;;;;;5080187;28;20047;-82
2022/09/07 10:08:17;;;;;;;9.63;8.20;;;20.90;99.90;;;;;;5094848;28;20043;-82
2022/09/07 10:11:14;;;;;;;9.18;8.10;;;20.90;99.90;;;;;;5083184;28;20078;-86
2022/09/07 10:13:55;;;;;;;8.88;7.97;;;21.10;99.90;;;;;;5082750;28;20054;-86
2022/09/07 10:16:38;;;;;;;9.60;8.60;;;21.30;99.90;;;;;;5098652;28;20135;-85
2022/09/07 10:19:03;;;;;;;8.15;7.35;;;21.40;99.90;;;;;;5089175;28;20031;-80
2022/09/07 10:21:31;;;;;;;9.63;7.43;;;21.60;99.90;;;;;;5069767;28;20097;-81
2022/09/07 10:24:04;;;;;;;8.77;7.88;;;21.70;99.90;;;;;;5080244;28;20048;-81
2022/09/07 10:26:35;;;;;;;7.68;6.97;;;21.70;99.90;;;;;;5079780;28;20355;-81
2022/09/07 10:29:07;;;;;;;8.32;7.50;;;21.70;99.90;;;;;;5079910;28;20040;-81
2022/09/07 10:31:40;;;;;;;8.02;7.22;;;21.70;99.90;;;;;;5083710;28;20047;-81
2022/09/07 10:34:37;;;;;;;8.85;7.95;;;21.70;99.90;;;;;;5079433;28;20047;-84
2022/09/07 10:37:08;;;;;;;9.32;7.35;;;21.70;99.90;;;;;;5081803;28;20043;-80
2022/09/07 10:39:40;;;;;;;8.57;7.50;;;21.70;99.90;;;;;;5071835;28;20451;-81
2022/09/07 10:42:19;;;;;;;7.60;6.75;;;21.70;99.90;;;;;;5086545;28;20043;-81
2022/09/07 10:45:01;;;;;;;8.45;7.50;;;21.90;99.90;;;;;;5080449;28;20036;-86
2022/09/07 10:47:43;;;;;;;7.28;6.47;;;22.10;99.90;;;;;;5084627;27;20176;-82
2022/09/07 10:50:18;;;;;;;7.72;6.40;;;22.20;99.90;;;;;;5094084;27;20038;-82
2022/09/07 10:52:47;;;;;;;7.28;6.50;;;22.30;99.90;;;;;;5113737;27;20125;-81
2022/09/07 10:55:19;;;;;;;9.07;7.10;;;22.30;99.90;;;;;;5122019;27;20027;-81
2022/09/07 10:58:24;;;;;;;8.32;6.70;;;22.40;99.90;;;;;;5104451;27;20041;-81
2022/09/07 11:01:21;;;;;;;9.60;6.70;;;22.40;99.90;;;;;;5117737;27;20039;-82
2022/09/07 11:03:58;;;;;;;7.72;6.82;;;22.40;99.90;;;;;;5095230;27;20168;-82
2022/09/07 11:06:42;;;;;;;9.43;6.75;;;22.50;99.90;;;;;;5093420;27;20076;-82
2022/09/07 11:09:27;;;;;;;7.57;6.53;;;22.60;99.90;;;;;;5108694;27;20512;-82
2022/09/07 11:12:16;;;;;;;8.40;7.32;;;22.60;99.90;;;;;;5101311;27;20031;-82
2022/09/07 11:14:45;;;;;;;8.77;6.80;;;22.60;99.90;;;;;;5116290;27;20045;-82
2022/09/07 11:17:24;;;;;;;7.35;6.50;;;22.70;99.90;;;;;;5102102;27;20039;-82
2022/09/07 11:19:53;;;;;;;7.93;6.57;;;22.90;99.90;;;;;;5109356;27;20490;-83
2022/09/07 11:22:30;;;;;;;7.68;6.22;;;23.10;99.90;;;;;;5100708;27;20055;-83
2022/09/07 11:25:07;;;;;;;9.05;6.78;;;23.10;99.90;;;;;;5099327;27;20051;-82
2022/09/07 11:27:45;;;;;;;8.90;6.53;;;23.10;99.90;;;;;;5104539;27;20039;-82
2022/09/07 11:30:45;;;;;;;8.23;6.65;;;23.00;99.90;;;;;;5097785;27;20207;-83
2022/09/07 11:33:24;;;;;;;7.55;6.75;;;22.90;99.90;;;;;;5100643;27;20449;-82
2022/09/07 11:35:53;;;;;;;7.97;6.82;;;22.80;99.90;;;;;;5100107;27;20508;-82
2022/09/07 11:38:26;;;;;;;7.65;6.05;;;22.80;99.90;;;;;;5100771;27;20034;-83
2022/09/07 11:41:06;;;;;;;8.55;6.47;;;22.80;99.90;;;;;;5099834;27;20461;-83
2022/09/07 11:44:15;;;;;;;7.13;6.22;;;22.90;99.90;;;;;;5107448;27;20061;-82
2022/09/07 11:46:50;;;;;;;8.02;6.20;;;22.90;99.90;;;;;;5106040;27;20038;-82
2022/09/07 11:49:23;;;;;;;9.35;7.65;;;23.00;99.90;;;;;;5096746;27;20144;-83
2022/09/07 11:52:13;;;;;;;9.65;6.32;;;23.10;99.90;;;;;;5103034;27;20049;-83
2022/09/07 11:54:53;;;;;;;8.50;6.68;;;23.20;99.90;;;;;;5124001;27;20128;-82
2022/09/07 11:57:49;;;;;;;9.13;7.20;;;23.50;99.90;;;;;;5105516;27;20485;-82
2022/09/07 12:00:21;;;;;;;7.43;4.97;;;23.60;99.90;;;;;;5100741;27;20071;-83
2022/09/07 12:02:59;;;;;;;7.72;4.95;;;23.90;99.90;;;;;;5097942;27;20043;-82
2022/09/07 12:05:46;;;;;;;9.25;4.43;;;24.00;99.90;;;;;;5101713;27;20068;-83
2022/09/07 12:08:25;;;;;;;8.40;4.53;;;24.20;99.90;;;;;;5102737;27;20074;-84
2022/09/07 12:10:59;;;;;;;6.93;5.00;;;24.30;99.90;;;;;;5115671;27;20027;-84
2022/09/07 12:13:39;;;;;;;6.05;3.83;;;24.30;99.90;;;;;;5123700;27;20116;-84
2022/09/07 12:16:12;;;;;;;4.00;3.00;;;24.40;99.90;;;;;;5098877;27;20042;-84
2022/09/07 12:19:02;;;;;;;5.57;4.15;;;24.50;99.90;;;;;;5106940;27;20593;-84
2022/09/07 12:21:46;;;;;;;5.88;3.95;;;24.70;99.90;;;;;;5118144;27;20269;-84
2022/09/07 12:24:38;;;;;;;5.25;3.72;;;24.70;99.90;;;;;;5121329;27;20046;-84
2022/09/07 12:27:09;;;;;;;5.32;3.40;;;24.60;99.90;;;;;;5127415;27;20047;-83
2022/09/07 12:29:35;;;;;;;4.82;3.60;;;24.60;99.90;;;;;;5097022;27;20130;-82
2022/09/07 12:32:06;;;;;;;6.82;4.75;;;24.60;99.90;;;;;;5086359;27;20047;-83
2022/09/07 12:34:32;;;;;;;5.78;3.85;;;24.60;99.90;;;;;;5098227;27;20038;-83
2022/09/07 12:36:58;;;;;;;6.45;4.30;;;24.70;99.90;;;;;;5098933;27;20043;-83
2022/09/07 12:39:32;;;;;;;6.80;4.15;;;24.70;99.90;;;;;;5099031;27;20094;-83
2022/09/07 12:42:04;;;;;;;6.22;4.28;;;24.80;99.90;;;;;;5094705;27;20043;-83
2022/09/07 12:44:30;;;;;;;4.75;2.70;;;24.80;99.90;;;;;;5116357;27;21079;-84
2022/09/07 12:47:02;;;;;;;5.78;3.53;;;24.80;99.90;;;;;;5098890;27;20051;-84
2022/09/07 12:49:41;;;;;;;5.50;4.43;;;24.90;99.90;;;;;;5091159;28;20077;-84
2022/09/07 12:52:41;;;;;;;4.75;3.40;;;24.90;99.90;;;;;;5115433;27;20047;-83
2022/09/07 12:55:11;;;;;;;6.55;3.85;;;25.00;99.90;;;;;;5111467;27;20058;-83
2022/09/07 12:57:37;;;;;;;;;;;25.00;99.70;;;;;;5099213;27;20051;-83
2022/09/07 13:00:19;;;;;;;5.97;2.95;;;25.00;99.90;;;;;;5100725;28;19923;-84
2022/09/07 13:03:09;;;;;;;5.15;3.25;;;25.00;99.90;;;;;;5094372;27;20039;-83
2022/09/07 13:05:56;;;;;;;4.63;3.53;;;25.00;99.90;;;;;;5092985;27;20074;-84
2022/09/07 13:08:46;;;;;;;6.10;3.67;;;25.10;99.90;;;;;;5104946;27;20050;-83